createdAt,value
2022-11-02T00:00:27.739Z,6.63
2022-11-02T00:02:54.911Z,6.63
2022-11-02T00:05:24.721Z,9.60
2022-11-02T00:07:52.726Z,9.48
2022-11-02T00:10:20.123Z,9.35
2022-11-02T00:12:47.544Z,9.25
2022-11-02T00:15:14.987Z,7.38
2022-11-02T00:17:43.310Z,6.03
2022-11-02T00:20:11.419Z,6.60
2022-11-02T00:22:39.514Z,7.10
2022-11-02T00:25:07.093Z,7.03
2022-11-02T00:27:35.086Z,7.10
2022-11-02T00:30:02.434Z,7.30
2022-11-02T00:32:29.507Z,5.85
2022-11-02T00:34:57.451Z,7.20
2022-11-02T00:37:24.702Z,8.95
2022-11-02T00:39:51.786Z,6.32
2022-11-02T00:42:18.851Z,6.07
2022-11-02T00:44:45.963Z,7.10
2022-11-02T00:47:12.970Z,5.30
2022-11-02T00:49:41.807Z,6.40
2022-11-02T00:52:08.909Z,6.30
2022-11-02T00:54:35.956Z,6.80
2022-11-02T00:57:03.063Z,6.63
2022-11-02T00:59:30.114Z,5.93
2022-11-02T01:01:57.372Z,5.85
2022-11-02T01:04:24.194Z,6.25
2022-11-02T01:06:51.411Z,5.80
2022-11-02T01:09:18.486Z,6.93
2022-11-02T01:14:30.559Z,7.35
2022-11-02T01:16:58.161Z,5.80
2022-11-02T01:19:25.816Z,6.95
2022-11-02T01:21:52.868Z,7.55
2022-11-02T01:24:19.987Z,6.78
2022-11-02T01:26:50.632Z,6.70
2022-11-02T01:29:17.948Z,4.95
2022-11-02T01:31:45.192Z,6.30
2022-11-02T01:34:12.599Z,5.60
2022-11-02T01:36:39.683Z,6.03
2022-11-02T01:39:06.730Z,5.73
2022-11-02T01:41:33.858Z,6.28
2022-11-02T01:44:03.097Z,6.35
2022-11-02T01:46:40.716Z,9.55
2022-11-02T01:49:13.145Z,5.38
2022-11-02T01:51:45.980Z,4.82
2022-11-02T01:54:16.737Z,5.87
2022-11-02T01:56:46.572Z,6.20
2022-11-02T01:59:16.344Z,5.07
2022-11-02T02:01:43.470Z,5.50
2022-11-02T02:04:12.045Z,4.28
2022-11-02T02:06:40.026Z,5.17
2022-11-02T02:09:08.084Z,5.70
2022-11-02T02:11:39.437Z,5.22
2022-11-02T02:14:11.988Z,6.43
2022-11-02T02:16:40.075Z,6.17
2022-11-02T02:19:16.450Z,7.15
2022-11-02T02:21:53.364Z,6.63
2022-11-02T02:24:40.314Z,4.88
2022-11-02T02:27:12.798Z,4.40
2022-11-02T02:29:52.145Z,4.72
2022-11-02T02:32:20.190Z,5.30
2022-11-02T02:34:53.372Z,5.38
2022-11-02T02:37:24.753Z,5.90
2022-11-02T02:39:58.462Z,4.10
2022-11-02T02:42:29.365Z,5.07
2022-11-02T02:45:02.038Z,4.78
2022-11-02T02:47:30.828Z,5.35
2022-11-02T02:50:00.108Z,5.78
2022-11-02T02:52:27.688Z,6.78
2022-11-02T02:54:56.421Z,5.50
2022-11-02T02:57:24.032Z,4.38
2022-11-02T02:59:51.181Z,4.45
2022-11-02T03:02:18.379Z,4.50
2022-11-02T03:04:45.586Z,4.05
2022-11-02T03:07:14.784Z,4.60
2022-11-02T03:09:43.949Z,4.45
2022-11-02T03:12:10.973Z,4.32
2022-11-02T03:14:43.044Z,4.60
2022-11-02T03:17:11.481Z,6.18
2022-11-02T03:19:50.943Z,5.35
2022-11-02T03:22:23.562Z,4.47
2022-11-02T03:24:53.801Z,4.57
2022-11-02T03:27:23.960Z,4.82
2022-11-02T03:29:51.025Z,6.55
2022-11-02T03:32:23.916Z,7.20
2022-11-02T03:34:56.131Z,4.35
2022-11-02T03:37:25.241Z,4.93
2022-11-02T03:39:55.660Z,4.30
2022-11-02T03:42:26.618Z,5.53
2022-11-02T03:44:57.639Z,4.32
2022-11-02T03:47:26.128Z,5.05
2022-11-02T03:49:56.123Z,4.33
2022-11-02T03:52:25.647Z,5.15
2022-11-02T03:54:58.765Z,4.10
2022-11-02T03:57:29.649Z,3.80
2022-11-02T04:00:06.984Z,6.20
2022-11-02T04:02:36.282Z,4.13
2022-11-02T04:05:03.456Z,5.07
2022-11-02T04:07:56.810Z,3.93
2022-11-02T04:10:26.587Z,6.00
2022-11-02T04:13:13.564Z,5.03
2022-11-02T04:15:40.827Z,4.32
2022-11-02T04:18:27.772Z,5.70
2022-11-02T04:20:54.919Z,3.30
2022-11-02T04:23:42.034Z,5.10
2022-11-02T04:26:09.174Z,4.00
2022-11-02T04:28:36.222Z,3.75
2022-11-02T04:31:03.286Z,4.43
2022-11-02T04:33:33.422Z,3.80
2022-11-02T04:36:02.570Z,3.87
2022-11-02T04:38:46.479Z,4.00
2022-11-02T04:41:35.630Z,4.40
2022-11-02T04:44:02.955Z,3.50
2022-11-02T04:46:30.959Z,4.55
2022-11-02T04:48:58.062Z,5.13
2022-11-02T04:51:26.446Z,3.67
2022-11-02T04:53:54.169Z,6.13
2022-11-02T04:56:21.732Z,3.20
2022-11-02T04:58:50.572Z,3.03
2022-11-02T05:01:18.380Z,4.00
2022-11-02T05:03:48.183Z,5.47
2022-11-02T05:06:15.602Z,3.60
2022-11-02T05:08:42.717Z,4.20
2022-11-02T05:11:10.497Z,4.50
2022-11-02T05:13:38.094Z,6.30
2022-11-02T05:16:05.649Z,4.60
2022-11-02T05:18:32.765Z,5.90
2022-11-02T05:21:00.950Z,6.60
2022-11-02T05:23:28.713Z,4.55
2022-11-02T05:25:58.055Z,5.37
2022-11-02T05:28:25.681Z,8.90
2022-11-02T05:30:52.970Z,5.30
2022-11-02T05:33:20.579Z,5.60
2022-11-02T05:35:47.853Z,6.35
2022-11-02T05:38:14.873Z,6.70
2022-11-02T05:40:41.970Z,5.18
2022-11-02T05:43:10.177Z,5.88
2022-11-02T05:45:37.757Z,6.80
2022-11-02T05:48:08.246Z,5.18
2022-11-02T05:50:35.326Z,5.07
2022-11-02T05:53:02.701Z,5.05
2022-11-02T05:55:29.972Z,4.65
2022-11-02T05:57:57.089Z,4.32
2022-11-02T06:00:24.293Z,3.92
2022-11-02T06:02:56.677Z,4.57
2022-11-02T06:05:23.885Z,4.20
2022-11-02T06:07:51.038Z,5.97
2022-11-02T06:10:18.393Z,7.93
2022-11-02T06:12:45.970Z,4.57
2022-11-02T06:15:13.070Z,5.37
2022-11-02T06:17:40.470Z,5.20
2022-11-02T06:20:08.289Z,4.18
2022-11-02T06:22:42.593Z,4.20
2022-11-02T06:25:10.116Z,4.30
2022-11-02T06:27:39.931Z,6.25
2022-11-02T06:30:10.753Z,4.28
2022-11-02T06:32:37.877Z,4.50
2022-11-02T06:35:05.020Z,4.25
2022-11-02T06:37:33.777Z,4.55
2022-11-02T06:40:00.798Z,4.55
2022-11-02T06:42:28.305Z,5.78
2022-11-02T06:45:02.131Z,6.55
2022-11-02T06:47:33.177Z,7.45
2022-11-02T06:50:00.733Z,7.93
2022-11-02T06:52:28.656Z,7.60
2022-11-02T06:54:55.861Z,9.75
2022-11-02T06:57:22.924Z,8.50
2022-11-02T06:59:53.815Z,11.17
2022-11-02T07:02:22.014Z,8.65
2022-11-02T07:04:49.724Z,7.90
2022-11-02T07:07:17.240Z,6.72
2022-11-02T07:09:44.606Z,7.30
2022-11-02T07:12:11.688Z,5.80
2022-11-02T07:14:38.769Z,7.38
2022-11-02T07:17:06.060Z,4.03
2022-11-02T07:19:33.187Z,5.38
2022-11-02T07:22:00.276Z,4.57
2022-11-02T07:24:27.329Z,4.47
2022-11-02T07:26:54.468Z,5.68
2022-11-02T07:29:21.509Z,5.95
2022-11-02T07:31:48.656Z,5.70
2022-11-02T07:34:17.165Z,5.60
2022-11-02T07:36:44.803Z,6.43
2022-11-02T07:39:11.897Z,7.28
2022-11-02T07:41:39.025Z,5.43
2022-11-02T07:44:06.420Z,6.63
2022-11-02T07:46:33.077Z,7.20
2022-11-02T07:49:00.171Z,6.65
2022-11-02T07:51:27.265Z,5.60
2022-11-02T07:53:54.377Z,5.83
2022-11-02T07:56:21.512Z,4.72
2022-11-02T07:58:48.537Z,5.38
2022-11-02T08:01:15.693Z,6.78
2022-11-02T08:03:42.756Z,6.13
2022-11-02T08:06:10.009Z,7.22
2022-11-02T08:08:37.108Z,5.32
2022-11-02T08:11:06.048Z,7.15
2022-11-02T08:13:33.524Z,5.03
2022-11-02T08:16:00.608Z,5.33
2022-11-02T08:18:28.598Z,5.32
2022-11-02T08:20:56.621Z,4.55
2022-11-02T08:23:24.133Z,4.90
2022-11-02T08:25:53.436Z,4.78
2022-11-02T08:28:23.784Z,5.03
2022-11-02T08:30:51.123Z,5.78
2022-11-02T08:33:19.040Z,4.38
2022-11-02T08:35:47.173Z,4.13
2022-11-02T08:38:14.651Z,6.57
2022-11-02T08:40:42.196Z,3.70
2022-11-02T08:43:11.657Z,3.80
2022-11-02T08:46:12.804Z,3.17
2022-11-02T08:48:27.431Z,3.60
2022-11-02T08:50:55.598Z,4.97
2022-11-02T08:53:22.682Z,4.53
2022-11-02T08:55:49.783Z,3.80
2022-11-02T08:58:18.399Z,4.50
2022-11-02T09:00:45.542Z,4.90
2022-11-02T09:03:13.835Z,4.95
2022-11-02T09:05:42.487Z,6.55
2022-11-02T09:08:12.517Z,4.53
2022-11-02T09:10:39.852Z,6.45
2022-11-02T09:13:08.274Z,4.05
2022-11-02T09:15:36.703Z,7.60
2022-11-02T09:18:04.333Z,4.65
2022-11-02T09:20:31.644Z,5.03
2022-11-02T09:22:58.686Z,5.07
2022-11-02T09:25:25.836Z,3.72
2022-11-02T09:28:04.434Z,4.55
2022-11-02T09:30:31.646Z,2.85
2022-11-02T09:32:59.976Z,4.65
2022-11-02T09:35:28.251Z,4.68
2022-11-02T09:37:55.385Z,3.35
2022-11-02T09:40:23.311Z,5.63
2022-11-02T09:42:59.519Z,5.30
2022-11-02T09:45:27.791Z,5.00
2022-11-02T09:48:15.757Z,3.70
2022-11-02T09:50:47.859Z,3.63
2022-11-02T09:53:18.629Z,5.38
2022-11-02T09:55:50.411Z,5.55
2022-11-02T09:58:19.159Z,5.45
2022-11-02T10:00:48.946Z,5.53
2022-11-02T10:03:21.763Z,4.85
2022-11-02T10:05:54.062Z,4.82
2022-11-02T10:08:41.056Z,4.68
2022-11-02T10:11:28.451Z,5.90
2022-11-02T10:13:58.819Z,4.93
2022-11-02T10:16:31.213Z,5.70
2022-11-02T10:18:58.168Z,4.28
2022-11-02T10:21:28.058Z,6.70
2022-11-02T10:23:55.955Z,4.80
2022-11-02T10:26:31.666Z,5.50
2022-11-02T10:28:59.908Z,5.95
2022-11-02T10:31:30.443Z,4.72
2022-11-02T10:33:58.442Z,4.38
2022-11-02T10:36:26.589Z,5.40
2022-11-02T10:38:54.734Z,4.67
2022-11-02T10:41:32.553Z,5.55
2022-11-02T10:44:19.554Z,6.70
2022-11-02T10:46:46.562Z,4.93
2022-11-02T10:49:17.166Z,6.45
2022-11-02T10:51:44.281Z,6.75
2022-11-02T10:54:16.215Z,5.45
2022-11-02T10:56:47.141Z,6.10
2022-11-02T10:59:15.447Z,4.65
2022-11-02T11:01:58.938Z,6.68
2022-11-02T11:04:27.269Z,4.85
2022-11-02T11:06:55.230Z,4.88
2022-11-02T11:09:25.646Z,5.47
2022-11-02T11:11:59.954Z,5.15
2022-11-02T11:20:07.389Z,3.70
2022-11-02T11:22:38.496Z,5.10
2022-11-02T11:25:27.155Z,6.00
2022-11-02T11:27:55.173Z,6.57
2022-11-02T11:30:54.251Z,4.73
2022-11-02T11:33:17.188Z,3.97
2022-11-02T11:35:48.234Z,4.13
2022-11-02T11:38:15.200Z,3.45
2022-11-02T11:40:45.631Z,4.37
2022-11-02T11:43:14.289Z,4.13
2022-11-02T11:45:42.178Z,5.35
2022-11-02T11:48:24.149Z,4.53
2022-11-02T11:50:51.603Z,4.17
2022-11-02T11:53:22.062Z,4.93
2022-11-02T11:55:52.287Z,5.35
2022-11-02T11:58:21.440Z,5.53
2022-11-02T12:01:11.051Z,5.10
2022-11-02T12:03:56.125Z,4.03
2022-11-02T12:06:30.705Z,4.40
2022-11-02T12:09:04.699Z,5.22
2022-11-02T12:11:47.597Z,5.20
2022-11-02T12:14:25.117Z,4.70
2022-11-02T12:16:53.176Z,4.88
2022-11-02T12:19:20.236Z,5.10
2022-11-02T12:21:55.732Z,4.13
2022-11-02T12:24:42.708Z,3.92
2022-11-02T12:27:29.988Z,8.32
2022-11-02T12:30:17.053Z,8.75
2022-11-02T12:32:44.049Z,4.78
2022-11-02T12:35:30.836Z,3.58
2022-11-02T12:38:17.934Z,3.00
2022-11-02T12:40:54.456Z,3.38
2022-11-02T12:43:21.516Z,6.05
2022-11-02T12:45:51.799Z,4.18
2022-11-02T12:48:38.789Z,3.90
2022-11-02T12:51:11.939Z,3.65
2022-11-02T12:53:56.908Z,4.72
2022-11-02T12:56:27.500Z,5.60
2022-11-02T12:58:54.872Z,2.72
2022-11-02T13:01:27.375Z,5.00
2022-11-02T13:04:10.849Z,4.57
2022-11-02T13:06:39.971Z,4.25
2022-11-02T13:09:10.983Z,3.63
2022-11-02T13:11:40.451Z,3.80
2022-11-02T13:14:15.405Z,4.00
2022-11-02T13:17:02.179Z,4.30
2022-11-02T13:19:34.067Z,3.33
2022-11-02T13:22:01.844Z,4.50
2022-11-02T13:24:32.961Z,3.78
2022-11-02T13:27:14.187Z,4.68
2022-11-02T13:29:50.673Z,4.00
2022-11-02T13:32:23.668Z,3.85
2022-11-02T13:34:53.235Z,3.83
2022-11-02T13:37:23.520Z,4.60
2022-11-02T13:39:54.319Z,3.80
2022-11-02T13:42:21.391Z,3.15
2022-11-02T13:45:14.109Z,3.65
2022-11-02T13:48:02.508Z,3.95
2022-11-02T13:50:32.151Z,4.72
2022-11-02T13:53:01.812Z,5.40
2022-11-02T13:55:52.261Z,3.53
2022-11-02T13:58:23.271Z,4.77
2022-11-02T14:00:50.898Z,3.90
2022-11-02T14:03:22.322Z,3.35
2022-11-02T14:05:51.328Z,5.37
2022-11-02T14:08:23.295Z,4.55
2022-11-02T14:11:03.738Z,6.10
2022-11-02T14:13:50.813Z,4.22
2022-11-02T14:16:37.774Z,3.63
2022-11-02T14:19:20.989Z,3.05
2022-11-02T14:22:05.494Z,4.00
2022-11-02T14:24:33.663Z,2.85
2022-11-02T14:27:02.049Z,3.85
2022-11-02T14:29:38.872Z,2.65
2022-11-02T14:32:11.649Z,5.38
2022-11-02T14:34:58.635Z,4.50
2022-11-02T14:37:45.650Z,4.47
2022-11-02T14:40:21.002Z,5.60
2022-11-02T14:42:49.035Z,3.25
2022-11-02T14:45:16.059Z,4.20
2022-11-02T14:47:43.329Z,4.80
2022-11-02T14:50:11.349Z,4.18
2022-11-02T14:52:39.023Z,4.90
2022-11-02T14:55:09.213Z,3.33
2022-11-02T14:57:41.170Z,4.13
2022-11-02T15:00:25.213Z,3.00
2022-11-02T15:02:53.800Z,4.30
2022-11-02T15:05:21.427Z,4.65
2022-11-02T15:07:51.554Z,3.63
2022-11-02T15:10:18.569Z,5.97
2022-11-02T15:12:47.070Z,6.40
2022-11-02T15:15:31.707Z,5.30
2022-11-02T15:18:00.174Z,3.22
2022-11-02T15:20:29.101Z,4.25
2022-11-02T15:22:58.970Z,6.30
2022-11-02T15:25:27.894Z,3.70
2022-11-02T15:27:57.302Z,4.53
2022-11-02T15:30:28.333Z,4.45
2022-11-02T15:33:01.872Z,5.05
2022-11-02T15:35:31.708Z,4.90
2022-11-02T15:38:16.362Z,4.40
2022-11-02T15:40:45.737Z,3.40
2022-11-02T15:43:32.775Z,2.60
2022-11-02T15:46:19.784Z,4.53
2022-11-02T15:49:06.887Z,4.55
2022-11-02T15:51:40.086Z,4.63
2022-11-02T15:54:07.125Z,4.18
2022-11-02T15:56:54.129Z,4.53
2022-11-02T15:59:21.187Z,6.15
2022-11-02T16:02:02.776Z,5.65
2022-11-02T16:04:29.482Z,6.10
2022-11-02T16:06:56.564Z,4.22
2022-11-02T16:09:31.848Z,5.50
2022-11-02T16:12:17.004Z,8.57
2022-11-02T16:14:44.690Z,6.67
2022-11-02T16:17:19.608Z,6.93
2022-11-02T16:19:46.979Z,7.90
2022-11-02T16:22:19.272Z,5.88
2022-11-02T16:24:47.365Z,6.22
2022-11-02T16:27:14.385Z,8.73
2022-11-02T16:29:42.404Z,9.02
2022-11-02T16:32:11.513Z,7.72
2022-11-02T16:34:39.181Z,6.05
2022-11-02T16:37:10.518Z,8.50
2022-11-02T16:39:39.666Z,5.53
2022-11-02T16:42:08.780Z,6.17
2022-11-02T16:44:36.235Z,6.40
2022-11-02T16:47:10.819Z,8.95
2022-11-02T16:49:53.424Z,7.53
2022-11-02T16:52:22.288Z,4.35
2022-11-02T16:54:49.484Z,6.85
2022-11-02T16:57:19.140Z,6.13
2022-11-02T17:00:07.824Z,6.37
2022-11-02T17:02:39.184Z,8.23
2022-11-02T17:05:07.303Z,8.50
2022-11-02T17:07:40.536Z,9.82
2022-11-02T17:10:08.504Z,16.23
2022-11-02T17:12:37.608Z,14.50
2022-11-02T17:15:11.600Z,7.78
2022-11-02T17:17:40.639Z,9.88
2022-11-02T17:20:09.667Z,9.30
2022-11-02T17:22:37.808Z,8.82
2022-11-02T17:25:11.576Z,6.63
2022-11-02T17:27:42.131Z,6.15
2022-11-02T17:30:29.936Z,9.00
2022-11-02T17:32:58.520Z,9.77
2022-11-02T17:35:27.380Z,8.45
2022-11-02T17:37:54.856Z,10.50
2022-11-02T17:40:22.102Z,10.07
2022-11-02T17:43:04.683Z,9.55
2022-11-02T17:45:33.816Z,10.38
2022-11-02T17:48:02.469Z,14.48
2022-11-02T17:50:30.947Z,23.27
2022-11-02T17:52:58.550Z,30.70
2022-11-02T17:55:27.599Z,32.07
2022-11-02T17:57:55.175Z,25.60
2022-11-02T18:00:23.300Z,27.98
2022-11-02T18:02:51.428Z,27.63
2022-11-02T18:05:21.917Z,31.73
2022-11-02T18:07:49.332Z,25.48
2022-11-02T18:10:16.687Z,20.73
2022-11-02T18:12:43.763Z,13.20
2022-11-02T18:15:14.258Z,14.70
2022-11-02T18:17:41.827Z,22.23
2022-11-02T18:20:09.522Z,12.80
2022-11-02T18:22:36.630Z,10.95
2022-11-02T18:25:04.066Z,12.47
2022-11-02T18:27:31.122Z,11.32
2022-11-02T18:29:58.194Z,11.15
2022-11-02T18:32:25.745Z,9.88
2022-11-02T18:34:52.793Z,14.77
2022-11-02T18:37:19.848Z,11.52
2022-11-02T18:39:46.945Z,12.85
2022-11-02T18:42:13.951Z,11.65
2022-11-02T18:44:41.093Z,15.02
2022-11-02T18:47:09.015Z,13.85
2022-11-02T18:49:36.098Z,14.77
2022-11-02T18:52:03.214Z,13.40
2022-11-02T18:54:30.273Z,14.20
2022-11-02T18:56:57.389Z,13.48
2022-11-02T18:59:24.398Z,14.80
2022-11-02T19:01:51.607Z,13.13
2022-11-02T19:04:18.786Z,14.10
2022-11-02T19:07:05.879Z,15.93
2022-11-02T19:09:33.737Z,14.55
2022-11-02T19:12:00.776Z,23.63
2022-11-02T19:14:33.141Z,26.85
2022-11-02T19:17:00.195Z,25.15
2022-11-02T19:19:27.309Z,20.30
2022-11-02T19:21:54.383Z,17.75
2022-11-02T19:24:21.803Z,17.40
2022-11-02T19:26:48.911Z,17.10
2022-11-02T19:29:16.685Z,16.38
2022-11-02T19:31:44.095Z,17.17
2022-11-02T19:34:11.650Z,16.40
2022-11-02T19:36:39.073Z,15.38
2022-11-02T19:39:08.273Z,15.67
2022-11-02T19:41:35.462Z,13.03
2022-11-02T19:44:02.592Z,15.13
2022-11-02T19:46:29.767Z,14.57
2022-11-02T19:48:58.115Z,20.15
2022-11-02T19:51:26.608Z,23.80
2022-11-02T19:53:54.993Z,15.63
2022-11-02T19:56:22.729Z,16.80
2022-11-02T19:58:50.840Z,18.33
2022-11-02T20:01:21.265Z,13.70
2022-11-02T20:03:49.047Z,14.52
2022-11-02T20:06:18.624Z,16.23
2022-11-02T20:08:45.672Z,14.05
2022-11-02T20:11:13.717Z,13.80
2022-11-02T20:13:43.493Z,10.55
2022-11-02T20:16:11.406Z,10.65
2022-11-02T20:18:39.718Z,15.35
2022-11-02T20:21:07.855Z,14.70
2022-11-02T20:23:35.558Z,15.60
2022-11-02T20:26:03.300Z,14.77
2022-11-02T20:28:30.824Z,14.13
2022-11-02T20:30:57.928Z,18.42
2022-11-02T20:33:25.074Z,13.60
2022-11-02T20:35:52.182Z,11.90
2022-11-02T20:38:19.312Z,12.07
2022-11-02T20:40:46.460Z,12.05
2022-11-02T20:43:13.496Z,11.00
2022-11-02T20:45:40.642Z,11.55
2022-11-02T20:48:07.986Z,8.38
2022-11-02T20:50:36.297Z,9.93
2022-11-02T20:53:03.787Z,9.20
2022-11-02T20:55:31.129Z,11.10
2022-11-02T20:57:58.186Z,10.05
2022-11-02T21:00:25.572Z,10.15
2022-11-02T21:02:53.124Z,8.38
2022-11-02T21:05:20.189Z,9.57
2022-11-02T21:07:50.055Z,10.70
2022-11-02T21:10:17.563Z,12.30
2022-11-02T21:13:04.918Z,10.63
2022-11-02T21:15:32.271Z,7.13
2022-11-02T21:17:59.868Z,8.48
2022-11-02T21:20:34.164Z,10.15
2022-11-02T21:23:02.539Z,14.65
2022-11-02T21:25:30.565Z,12.20
2022-11-02T21:27:57.665Z,8.70
2022-11-02T21:30:24.713Z,8.15
2022-11-02T21:32:52.320Z,10.00
2022-11-02T21:35:19.798Z,10.27
2022-11-02T21:37:46.909Z,9.25
2022-11-02T21:40:14.078Z,8.48
2022-11-02T21:42:41.529Z,11.18
2022-11-02T21:45:08.961Z,11.63
2022-11-02T21:47:36.065Z,9.38
2022-11-02T21:50:06.609Z,8.52
2022-11-02T21:52:39.786Z,9.07
2022-11-02T21:55:09.814Z,9.55
2022-11-02T21:57:36.960Z,9.25
2022-11-02T22:00:04.403Z,8.52
2022-11-02T22:02:31.479Z,8.57
2022-11-02T22:04:58.605Z,8.70
2022-11-02T22:07:25.652Z,10.60
2022-11-02T22:09:52.737Z,11.90
2022-11-02T22:12:39.713Z,8.00
2022-11-02T22:15:07.150Z,10.88
2022-11-02T22:17:49.328Z,9.43
2022-11-02T22:20:16.999Z,9.30
2022-11-02T22:22:44.027Z,11.43
2022-11-02T22:25:11.108Z,10.65
2022-11-02T22:27:37.721Z,12.80
2022-11-02T22:30:04.936Z,7.57
2022-11-02T22:32:32.016Z,7.13
2022-11-02T22:34:59.069Z,8.55
2022-11-02T22:37:46.044Z,9.60
2022-11-02T22:40:13.087Z,7.32
2022-11-02T22:42:42.468Z,7.88
2022-11-02T22:45:10.111Z,8.20
2022-11-02T22:47:37.220Z,8.05
2022-11-02T22:50:04.409Z,7.70
2022-11-02T22:52:31.483Z,7.80
2022-11-02T22:54:58.496Z,9.68
2022-11-02T22:57:25.704Z,8.57
2022-11-02T22:59:52.742Z,8.63
2022-11-02T23:02:19.880Z,8.97
2022-11-02T23:04:46.937Z,9.70
2022-11-02T23:07:13.984Z,9.90
2022-11-02T23:09:41.079Z,8.65
2022-11-02T23:12:08.331Z,10.90
2022-11-02T23:14:35.427Z,9.80
2022-11-02T23:17:02.551Z,9.07
2022-11-02T23:19:30.116Z,9.47
2022-11-02T23:22:32.838Z,7.38
2022-11-02T23:25:18.207Z,8.75
2022-11-02T23:28:05.121Z,6.00
2022-11-02T23:30:54.809Z,6.88
2022-11-02T23:33:22.918Z,7.68
2022-11-02T23:36:10.083Z,7.13
2022-11-02T23:38:57.208Z,7.80
2022-11-02T23:41:24.407Z,7.90
2022-11-02T23:43:51.580Z,8.82
2022-11-02T23:46:18.807Z,6.53
2022-11-02T23:48:48.370Z,8.40
2022-11-02T23:51:18.224Z,6.63
2022-11-02T23:54:05.187Z,9.23
2022-11-02T23:56:49.983Z,8.63
2022-11-02T23:59:18.310Z,7.80
